sensor_id;sensor_type;location;lat;lon;timestamp;P1;durP1;ratioP1;P2;durP2;ratioP2
74528;SDS011;63009;52.584;5.932;2023-08-20T00:01:18;11.40;;;3.83;;
74528;SDS011;63009;52.584;5.932;2023-08-20T00:03:47;9.52;;;3.92;;
74528;SDS011;63009;52.584;5.932;2023-08-20T00:06:13;9.65;;;3.75;;
74528;SDS011;63009;52.584;5.932;2023-08-20T00:08:39;8.63;;;3.45;;
74528;SDS011;63009;52.584;5.932;2023-08-20T00:11:04;10.67;;;3.50;;
74528;SDS011;63009;52.584;5.932;2023-08-20T00:13:30;13.65;;;4.70;;
74528;SDS011;63009;52.584;5.932;2023-08-20T00:15:56;11.27;;;4.18;;
74528;SDS011;63009;52.584;5.932;2023-08-20T00:18:21;9.95;;;3.50;;
74528;SDS011;63009;52.584;5.932;2023-08-20T00:20:47;9.63;;;3.28;;
74528;SDS011;63009;52.584;5.932;2023-08-20T00:23:12;9.20;;;3.25;;
74528;SDS011;63009;52.584;5.932;2023-08-20T00:25:38;8.05;;;3.72;;
74528;SDS011;63009;52.584;5.932;2023-08-20T00:28:04;9.45;;;3.10;;
74528;SDS011;63009;52.584;5.932;2023-08-20T00:30:29;9.90;;;3.28;;
74528;SDS011;63009;52.584;5.932;2023-08-20T00:32:55;10.63;;;3.50;;
74528;SDS011;63009;52.584;5.932;2023-08-20T00:35:20;9.75;;;3.55;;
74528;SDS011;63009;52.584;5.932;2023-08-20T00:37:46;9.07;;;3.20;;
74528;SDS011;63009;52.584;5.932;2023-08-20T00:40:12;10.68;;;3.30;;
74528;SDS011;63009;52.584;5.932;2023-08-20T00:42:37;8.80;;;2.90;;
74528;SDS011;63009;52.584;5.932;2023-08-20T00:45:03;9.75;;;2.90;;
74528;SDS011;63009;52.584;5.932;2023-08-20T00:47:29;9.32;;;3.17;;
74528;SDS011;63009;52.584;5.932;2023-08-20T00:49:54;10.02;;;3.92;;
74528;SDS011;63009;52.584;5.932;2023-08-20T00:52:20;8.68;;;3.42;;
74528;SDS011;63009;52.584;5.932;2023-08-20T00:54:45;8.57;;;2.92;;
74528;SDS011;63009;52.584;5.932;2023-08-20T00:57:17;8.75;;;3.08;;
74528;SDS011;63009;52.584;5.932;2023-08-20T00:59:44;8.30;;;2.95;;
74528;SDS011;63009;52.584;5.932;2023-08-20T01:02:12;9.52;;;3.10;;
74528;SDS011;63009;52.584;5.932;2023-08-20T01:04:37;9.07;;;3.30;;
74528;SDS011;63009;52.584;5.932;2023-08-20T01:07:24;11.10;;;3.60;;
74528;SDS011;63009;52.584;5.932;2023-08-20T01:12:28;7.35;;;3.17;;
74528;SDS011;63009;52.584;5.932;2023-08-20T01:14:54;8.63;;;3.42;;
74528;SDS011;63009;52.584;5.932;2023-08-20T01:17:19;7.97;;;2.78;;
74528;SDS011;63009;52.584;5.932;2023-08-20T01:19:45;6.90;;;3.25;;
74528;SDS011;63009;52.584;5.932;2023-08-20T01:27:52;9.93;;;2.92;;
74528;SDS011;63009;52.584;5.932;2023-08-20T01:30:43;9.18;;;3.00;;
74528;SDS011;63009;52.584;5.932;2023-08-20T01:33:09;10.32;;;3.13;;
74528;SDS011;63009;52.584;5.932;2023-08-20T01:35:37;8.88;;;3.33;;
74528;SDS011;63009;52.584;5.932;2023-08-20T01:38:02;9.37;;;3.03;;
74528;SDS011;63009;52.584;5.932;2023-08-20T01:40:28;10.65;;;3.88;;
74528;SDS011;63009;52.584;5.932;2023-08-20T01:42:53;9.13;;;3.57;;
74528;SDS011;63009;52.584;5.932;2023-08-20T01:45:18;10.40;;;3.73;;
74528;SDS011;63009;52.584;5.932;2023-08-20T01:47:44;9.05;;;3.40;;
74528;SDS011;63009;52.584;5.932;2023-08-20T01:50:09;15.77;;;3.93;;
74528;SDS011;63009;52.584;5.932;2023-08-20T01:52:35;11.23;;;4.20;;
74528;SDS011;63009;52.584;5.932;2023-08-20T01:55:00;10.10;;;3.80;;
74528;SDS011;63009;52.584;5.932;2023-08-20T01:57:25;9.63;;;3.80;;
74528;SDS011;63009;52.584;5.932;2023-08-20T01:59:50;12.60;;;4.30;;
74528;SDS011;63009;52.584;5.932;2023-08-20T02:02:16;14.23;;;4.50;;
74528;SDS011;63009;52.584;5.932;2023-08-20T02:04:41;11.80;;;4.70;;
74528;SDS011;63009;52.584;5.932;2023-08-20T02:07:06;14.23;;;3.93;;
74528;SDS011;63009;52.584;5.932;2023-08-20T02:09:32;10.93;;;4.72;;
74528;SDS011;63009;52.584;5.932;2023-08-20T02:11:57;15.87;;;4.40;;
74528;SDS011;63009;52.584;5.932;2023-08-20T02:14:22;11.47;;;4.37;;
74528;SDS011;63009;52.584;5.932;2023-08-20T02:16:48;14.20;;;4.47;;
74528;SDS011;63009;52.584;5.932;2023-08-20T02:19:13;11.03;;;5.00;;
74528;SDS011;63009;52.584;5.932;2023-08-20T02:21:39;11.52;;;5.20;;
74528;SDS011;63009;52.584;5.932;2023-08-20T02:24:05;12.32;;;4.72;;
74528;SDS011;63009;52.584;5.932;2023-08-20T02:26:30;10.10;;;4.63;;
74528;SDS011;63009;52.584;5.932;2023-08-20T02:28:56;12.87;;;4.97;;
74528;SDS011;63009;52.584;5.932;2023-08-20T02:31:21;9.98;;;4.63;;
74528;SDS011;63009;52.584;5.932;2023-08-20T02:33:46;18.97;;;5.13;;
74528;SDS011;63009;52.584;5.932;2023-08-20T02:36:12;12.55;;;5.63;;
74528;SDS011;63009;52.584;5.932;2023-08-20T02:38:37;10.03;;;5.20;;
74528;SDS011;63009;52.584;5.932;2023-08-20T02:41:02;13.35;;;5.15;;
74528;SDS011;63009;52.584;5.932;2023-08-20T02:43:28;11.90;;;4.60;;
74528;SDS011;63009;52.584;5.932;2023-08-20T02:45:54;13.48;;;5.40;;
74528;SDS011;63009;52.584;5.932;2023-08-20T02:48:19;13.38;;;5.60;;
74528;SDS011;63009;52.584;5.932;2023-08-20T02:50:45;12.23;;;6.10;;
74528;SDS011;63009;52.584;5.932;2023-08-20T02:53:10;14.02;;;5.35;;
74528;SDS011;63009;52.584;5.932;2023-08-20T02:55:35;12.68;;;4.63;;
74528;SDS011;63009;52.584;5.932;2023-08-20T02:58:03;11.50;;;6.18;;
74528;SDS011;63009;52.584;5.932;2023-08-20T03:00:29;12.88;;;4.95;;
74528;SDS011;63009;52.584;5.932;2023-08-20T03:02:54;11.73;;;6.25;;
74528;SDS011;63009;52.584;5.932;2023-08-20T03:05:20;11.95;;;5.53;;
74528;SDS011;63009;52.584;5.932;2023-08-20T03:07:45;12.73;;;5.25;;
74528;SDS011;63009;52.584;5.932;2023-08-20T03:10:11;13.27;;;5.73;;
74528;SDS011;63009;52.584;5.932;2023-08-20T03:12:37;13.63;;;5.57;;
74528;SDS011;63009;52.584;5.932;2023-08-20T03:15:02;12.43;;;5.63;;
74528;SDS011;63009;52.584;5.932;2023-08-20T03:17:28;16.10;;;6.40;;
74528;SDS011;63009;52.584;5.932;2023-08-20T03:19:54;12.90;;;6.05;;
74528;SDS011;63009;52.584;5.932;2023-08-20T03:22:21;13.75;;;5.70;;
74528;SDS011;63009;52.584;5.932;2023-08-20T03:24:46;12.77;;;5.53;;
74528;SDS011;63009;52.584;5.932;2023-08-20T03:27:11;11.33;;;4.73;;
74528;SDS011;63009;52.584;5.932;2023-08-20T03:29:37;10.95;;;4.90;;
74528;SDS011;63009;52.584;5.932;2023-08-20T03:32:02;13.53;;;5.50;;
74528;SDS011;63009;52.584;5.932;2023-08-20T03:34:27;14.35;;;5.97;;
74528;SDS011;63009;52.584;5.932;2023-08-20T03:36:53;14.03;;;6.40;;
74528;SDS011;63009;52.584;5.932;2023-08-20T03:39:18;12.37;;;5.77;;
74528;SDS011;63009;52.584;5.932;2023-08-20T03:41:44;12.02;;;5.75;;
74528;SDS011;63009;52.584;5.932;2023-08-20T03:44:10;12.73;;;5.27;;
74528;SDS011;63009;52.584;5.932;2023-08-20T03:46:35;12.47;;;6.10;;
74528;SDS011;63009;52.584;5.932;2023-08-20T03:49:00;13.03;;;5.47;;
74528;SDS011;63009;52.584;5.932;2023-08-20T03:51:25;13.20;;;5.90;;
74528;SDS011;63009;52.584;5.932;2023-08-20T03:53:51;17.83;;;6.07;;
74528;SDS011;63009;52.584;5.932;2023-08-20T03:56:16;12.27;;;6.20;;
74528;SDS011;63009;52.584;5.932;2023-08-20T03:58:41;11.97;;;6.17;;
74528;SDS011;63009;52.584;5.932;2023-08-20T04:01:06;15.67;;;6.23;;
74528;SDS011;63009;52.584;5.932;2023-08-20T04:03:32;12.53;;;5.53;;
74528;SDS011;63009;52.584;5.932;2023-08-20T04:05:57;14.13;;;5.65;;
74528;SDS011;63009;52.584;5.932;2023-08-20T04:08:22;14.17;;;5.97;;
74528;SDS011;63009;52.584;5.932;2023-08-20T04:10:48;13.13;;;5.47;;
74528;SDS011;63009;52.584;5.932;2023-08-20T04:13:13;15.70;;;5.43;;
74528;SDS011;63009;52.584;5.932;2023-08-20T04:15:41;9.75;;;5.13;;
74528;SDS011;63009;52.584;5.932;2023-08-20T04:18:06;12.57;;;4.60;;
74528;SDS011;63009;52.584;5.932;2023-08-20T04:20:33;11.20;;;5.28;;
74528;SDS011;63009;52.584;5.932;2023-08-20T04:22:58;9.68;;;4.43;;
74528;SDS011;63009;52.584;5.932;2023-08-20T04:25:23;13.73;;;5.47;;
74528;SDS011;63009;52.584;5.932;2023-08-20T04:27:49;13.77;;;4.90;;
74528;SDS011;63009;52.584;5.932;2023-08-20T04:30:14;11.77;;;4.73;;
74528;SDS011;63009;52.584;5.932;2023-08-20T04:32:39;11.57;;;4.00;;
74528;SDS011;63009;52.584;5.932;2023-08-20T04:35:05;15.27;;;4.82;;
74528;SDS011;63009;52.584;5.932;2023-08-20T04:37:31;12.65;;;4.55;;
74528;SDS011;63009;52.584;5.932;2023-08-20T04:39:56;12.67;;;4.60;;
74528;SDS011;63009;52.584;5.932;2023-08-20T04:42:21;12.10;;;4.53;;
74528;SDS011;63009;52.584;5.932;2023-08-20T04:44:46;13.23;;;4.63;;
74528;SDS011;63009;52.584;5.932;2023-08-20T04:47:12;12.90;;;4.70;;
74528;SDS011;63009;52.584;5.932;2023-08-20T04:52:05;13.23;;;4.23;;
74528;SDS011;63009;52.584;5.932;2023-08-20T04:54:30;10.37;;;4.40;;
74528;SDS011;63009;52.584;5.932;2023-08-20T04:56:56;12.63;;;4.32;;
74528;SDS011;63009;52.584;5.932;2023-08-20T04:59:21;11.80;;;4.97;;
74528;SDS011;63009;52.584;5.932;2023-08-20T05:01:46;11.13;;;4.50;;
74528;SDS011;63009;52.584;5.932;2023-08-20T05:04:11;12.07;;;4.67;;
74528;SDS011;63009;52.584;5.932;2023-08-20T05:06:37;14.73;;;4.67;;
74528;SDS011;63009;52.584;5.932;2023-08-20T05:09:02;11.82;;;4.65;;
74528;SDS011;63009;52.584;5.932;2023-08-20T05:11:28;9.68;;;4.95;;
74528;SDS011;63009;52.584;5.932;2023-08-20T05:13:56;14.30;;;5.47;;
74528;SDS011;63009;52.584;5.932;2023-08-20T05:16:22;11.38;;;4.13;;
74528;SDS011;63009;52.584;5.932;2023-08-20T05:18:47;10.52;;;4.72;;
74528;SDS011;63009;52.584;5.932;2023-08-20T05:21:12;12.10;;;4.30;;
74528;SDS011;63009;52.584;5.932;2023-08-20T05:23:38;10.85;;;5.22;;
74528;SDS011;63009;52.584;5.932;2023-08-20T05:26:05;12.00;;;4.22;;
74528;SDS011;63009;52.584;5.932;2023-08-20T05:28:31;13.20;;;4.32;;
74528;SDS011;63009;52.584;5.932;2023-08-20T05:30:56;11.40;;;4.87;;
74528;SDS011;63009;52.584;5.932;2023-08-20T05:33:22;11.23;;;4.03;;
74528;SDS011;63009;52.584;5.932;2023-08-20T05:35:48;15.20;;;4.72;;
74528;SDS011;63009;52.584;5.932;2023-08-20T05:38:13;12.18;;;4.60;;
74528;SDS011;63009;52.584;5.932;2023-08-20T05:40:38;13.03;;;4.97;;
74528;SDS011;63009;52.584;5.932;2023-08-20T05:43:04;11.23;;;4.17;;
74528;SDS011;63009;52.584;5.932;2023-08-20T05:45:29;13.17;;;4.30;;
74528;SDS011;63009;52.584;5.932;2023-08-20T05:47:54;9.20;;;4.20;;
74528;SDS011;63009;52.584;5.932;2023-08-20T05:50:20;13.80;;;4.97;;
74528;SDS011;63009;52.584;5.932;2023-08-20T05:52:45;11.85;;;4.50;;
74528;SDS011;63009;52.584;5.932;2023-08-20T05:55:10;9.37;;;4.10;;
74528;SDS011;63009;52.584;5.932;2023-08-20T05:57:36;14.40;;;4.22;;
74528;SDS011;63009;52.584;5.932;2023-08-20T06:00:02;11.23;;;4.15;;
74528;SDS011;63009;52.584;5.932;2023-08-20T06:02:29;12.45;;;4.25;;
74528;SDS011;63009;52.584;5.932;2023-08-20T06:04:54;9.60;;;4.00;;
74528;SDS011;63009;52.584;5.932;2023-08-20T06:07:20;12.98;;;3.88;;
74528;SDS011;63009;52.584;5.932;2023-08-20T06:09:45;14.15;;;3.90;;
74528;SDS011;63009;52.584;5.932;2023-08-20T06:12:10;13.53;;;4.50;;
74528;SDS011;63009;52.584;5.932;2023-08-20T06:14:36;12.73;;;4.10;;
74528;SDS011;63009;52.584;5.932;2023-08-20T06:17:01;10.30;;;3.97;;
74528;SDS011;63009;52.584;5.932;2023-08-20T06:19:27;9.90;;;3.70;;
74528;SDS011;63009;52.584;5.932;2023-08-20T06:21:52;9.87;;;3.90;;
74528;SDS011;63009;52.584;5.932;2023-08-20T06:24:18;14.37;;;3.87;;
74528;SDS011;63009;52.584;5.932;2023-08-20T06:26:43;11.85;;;4.22;;
74528;SDS011;63009;52.584;5.932;2023-08-20T06:29:09;13.00;;;3.40;;
74528;SDS011;63009;52.584;5.932;2023-08-20T06:31:35;14.18;;;3.58;;
74528;SDS011;63009;52.584;5.932;2023-08-20T06:34:00;13.65;;;3.42;;
74528;SDS011;63009;52.584;5.932;2023-08-20T06:36:26;13.63;;;4.10;;
74528;SDS011;63009;52.584;5.932;2023-08-20T06:38:51;12.00;;;3.80;;
74528;SDS011;63009;52.584;5.932;2023-08-20T06:41:17;14.27;;;3.93;;
74528;SDS011;63009;52.584;5.932;2023-08-20T06:43:42;9.48;;;3.60;;
74528;SDS011;63009;52.584;5.932;2023-08-20T06:46:07;9.90;;;3.27;;
74528;SDS011;63009;52.584;5.932;2023-08-20T06:48:34;11.98;;;4.40;;
74528;SDS011;63009;52.584;5.932;2023-08-20T06:51:07;9.25;;;3.90;;
74528;SDS011;63009;52.584;5.932;2023-08-20T06:53:38;12.80;;;4.55;;
74528;SDS011;63009;52.584;5.932;2023-08-20T06:56:05;12.15;;;3.85;;
74528;SDS011;63009;52.584;5.932;2023-08-20T06:58:31;13.77;;;3.90;;
74528;SDS011;63009;52.584;5.932;2023-08-20T07:00:56;9.77;;;3.10;;
74528;SDS011;63009;52.584;5.932;2023-08-20T07:03:31;12.98;;;3.50;;
74528;SDS011;63009;52.584;5.932;2023-08-20T07:05:57;11.05;;;3.25;;
74528;SDS011;63009;52.584;5.932;2023-08-20T07:08:23;10.63;;;4.10;;
74528;SDS011;63009;52.584;5.932;2023-08-20T07:10:48;9.10;;;3.87;;
74528;SDS011;63009;52.584;5.932;2023-08-20T07:13:13;12.27;;;3.17;;
74528;SDS011;63009;52.584;5.932;2023-08-20T07:15:38;11.70;;;3.43;;
74528;SDS011;63009;52.584;5.932;2023-08-20T07:18:04;13.43;;;4.00;;
74528;SDS011;63009;52.584;5.932;2023-08-20T07:20:29;9.27;;;2.85;;
74528;SDS011;63009;52.584;5.932;2023-08-20T07:22:54;9.38;;;3.05;;
74528;SDS011;63009;52.584;5.932;2023-08-20T07:25:20;10.70;;;3.30;;
74528;SDS011;63009;52.584;5.932;2023-08-20T07:27:46;10.13;;;3.40;;
74528;SDS011;63009;52.584;5.932;2023-08-20T07:30:11;12.07;;;3.97;;
74528;SDS011;63009;52.584;5.932;2023-08-20T07:32:36;12.95;;;3.90;;
74528;SDS011;63009;52.584;5.932;2023-08-20T07:35:02;12.80;;;3.73;;
74528;SDS011;63009;52.584;5.932;2023-08-20T07:37:27;18.85;;;3.75;;
74528;SDS011;63009;52.584;5.932;2023-08-20T07:39:52;12.33;;;3.10;;
74528;SDS011;63009;52.584;5.932;2023-08-20T07:42:18;11.13;;;3.20;;
74528;SDS011;63009;52.584;5.932;2023-08-20T07:44:43;10.87;;;2.90;;
74528;SDS011;63009;52.584;5.932;2023-08-20T07:47:08;13.47;;;3.43;;
74528;SDS011;63009;52.584;5.932;2023-08-20T07:49:33;9.23;;;2.60;;
74528;SDS011;63009;52.584;5.932;2023-08-20T07:51:59;9.47;;;2.57;;
74528;SDS011;63009;52.584;5.932;2023-08-20T07:54:24;11.63;;;3.00;;
74528;SDS011;63009;52.584;5.932;2023-08-20T07:56:49;9.65;;;3.33;;
74528;SDS011;63009;52.584;5.932;2023-08-20T07:59:14;11.57;;;2.93;;
74528;SDS011;63009;52.584;5.932;2023-08-20T08:01:40;8.17;;;2.20;;
74528;SDS011;63009;52.584;5.932;2023-08-20T08:04:05;9.87;;;2.60;;
74528;SDS011;63009;52.584;5.932;2023-08-20T08:06:30;8.20;;;2.10;;
74528;SDS011;63009;52.584;5.932;2023-08-20T08:08:56;7.97;;;2.22;;
74528;SDS011;63009;52.584;5.932;2023-08-20T08:11:21;11.07;;;2.40;;
74528;SDS011;63009;52.584;5.932;2023-08-20T08:13:46;9.03;;;2.00;;
74528;SDS011;63009;52.584;5.932;2023-08-20T08:16:11;8.40;;;2.57;;
74528;SDS011;63009;52.584;5.932;2023-08-20T08:18:37;9.37;;;2.30;;
74528;SDS011;63009;52.584;5.932;2023-08-20T08:21:02;11.20;;;2.57;;
74528;SDS011;63009;52.584;5.932;2023-08-20T08:23:27;9.45;;;2.42;;
74528;SDS011;63009;52.584;5.932;2023-08-20T08:25:53;11.95;;;2.28;;
74528;SDS011;63009;52.584;5.932;2023-08-20T08:28:18;9.30;;;2.20;;
74528;SDS011;63009;52.584;5.932;2023-08-20T08:30:43;9.53;;;2.40;;
74528;SDS011;63009;52.584;5.932;2023-08-20T08:33:09;10.85;;;2.10;;
74528;SDS011;63009;52.584;5.932;2023-08-20T08:35:35;12.40;;;2.57;;
74528;SDS011;63009;52.584;5.932;2023-08-20T08:38:00;10.35;;;1.98;;
74528;SDS011;63009;52.584;5.932;2023-08-20T08:40:27;7.85;;;1.70;;
74528;SDS011;63009;52.584;5.932;2023-08-20T08:42:54;12.60;;;1.90;;
74528;SDS011;63009;52.584;5.932;2023-08-20T08:45:19;9.98;;;1.52;;
74528;SDS011;63009;52.584;5.932;2023-08-20T08:47:46;11.25;;;1.58;;
74528;SDS011;63009;52.584;5.932;2023-08-20T08:50:12;12.13;;;2.08;;
74528;SDS011;63009;52.584;5.932;2023-08-20T08:52:39;10.07;;;1.70;;
74528;SDS011;63009;52.584;5.932;2023-08-20T08:55:05;7.70;;;1.92;;
74528;SDS011;63009;52.584;5.932;2023-08-20T08:57:33;10.82;;;2.10;;
74528;SDS011;63009;52.584;5.932;2023-08-20T08:59:58;7.15;;;1.55;;
74528;SDS011;63009;52.584;5.932;2023-08-20T09:02:23;7.22;;;1.40;;
74528;SDS011;63009;52.584;5.932;2023-08-20T09:04:49;8.20;;;1.70;;
74528;SDS011;63009;52.584;5.932;2023-08-20T09:07:15;7.38;;;2.10;;
74528;SDS011;63009;52.584;5.932;2023-08-20T09:09:44;7.32;;;1.40;;
74528;SDS011;63009;52.584;5.932;2023-08-20T09:12:14;10.20;;;1.40;;
74528;SDS011;63009;52.584;5.932;2023-08-20T09:14:47;6.03;;;1.50;;
74528;SDS011;63009;52.584;5.932;2023-08-20T09:17:14;6.78;;;1.50;;
74528;SDS011;63009;52.584;5.932;2023-08-20T09:19:40;5.88;;;1.45;;
74528;SDS011;63009;52.584;5.932;2023-08-20T09:22:07;11.68;;;2.10;;
74528;SDS011;63009;52.584;5.932;2023-08-20T09:24:33;8.63;;;2.25;;
74528;SDS011;63009;52.584;5.932;2023-08-20T09:27:04;7.38;;;1.67;;
74528;SDS011;63009;52.584;5.932;2023-08-20T09:29:34;8.32;;;2.10;;
74528;SDS011;63009;52.584;5.932;2023-08-20T09:32:09;6.30;;;1.42;;
74528;SDS011;63009;52.584;5.932;2023-08-20T09:34:42;7.35;;;1.70;;
74528;SDS011;63009;52.584;5.932;2023-08-20T09:37:09;8.57;;;1.92;;
74528;SDS011;63009;52.584;5.932;2023-08-20T09:39:35;7.70;;;1.63;;
74528;SDS011;63009;52.584;5.932;2023-08-20T09:42:01;7.70;;;1.30;;
74528;SDS011;63009;52.584;5.932;2023-08-20T09:44:28;6.68;;;1.55;;
74528;SDS011;63009;52.584;5.932;2023-08-20T09:46:59;7.85;;;1.85;;
74528;SDS011;63009;52.584;5.932;2023-08-20T09:49:25;7.00;;;1.38;;
74528;SDS011;63009;52.584;5.932;2023-08-20T09:51:54;9.00;;;1.65;;
74528;SDS011;63009;52.584;5.932;2023-08-20T09:54:23;7.28;;;1.67;;
74528;SDS011;63009;52.584;5.932;2023-08-20T09:56:58;6.75;;;1.45;;
74528;SDS011;63009;52.584;5.932;2023-08-20T09:59:26;6.80;;;1.27;;
74528;SDS011;63009;52.584;5.932;2023-08-20T10:01:52;5.20;;;1.27;;
74528;SDS011;63009;52.584;5.932;2023-08-20T10:04:18;9.25;;;1.65;;
74528;SDS011;63009;52.584;5.932;2023-08-20T10:06:46;6.85;;;1.30;;
74528;SDS011;63009;52.584;5.932;2023-08-20T10:09:11;6.90;;;1.42;;
74528;SDS011;63009;52.584;5.932;2023-08-20T10:11:36;9.82;;;1.63;;
74528;SDS011;63009;52.584;5.932;2023-08-20T10:14:02;7.88;;;1.45;;
74528;SDS011;63009;52.584;5.932;2023-08-20T10:16:28;5.90;;;1.20;;
74528;SDS011;63009;52.584;5.932;2023-08-20T10:18:53;6.00;;;1.48;;
74528;SDS011;63009;52.584;5.932;2023-08-20T10:21:23;8.00;;;1.60;;
74528;SDS011;63009;52.584;5.932;2023-08-20T10:23:49;8.50;;;1.77;;
74528;SDS011;63009;52.584;5.932;2023-08-20T10:26:15;5.53;;;1.40;;
74528;SDS011;63009;52.584;5.932;2023-08-20T10:28:41;6.10;;;1.30;;
74528;SDS011;63009;52.584;5.932;2023-08-20T10:31:07;8.60;;;1.65;;
74528;SDS011;63009;52.584;5.932;2023-08-20T10:33:38;8.60;;;1.80;;
74528;SDS011;63009;52.584;5.932;2023-08-20T10:36:14;9.27;;;1.70;;
74528;SDS011;63009;52.584;5.932;2023-08-20T10:38:41;8.00;;;1.70;;
74528;SDS011;63009;52.584;5.932;2023-08-20T10:41:06;7.97;;;1.50;;
74528;SDS011;63009;52.584;5.932;2023-08-20T10:43:40;9.52;;;1.85;;
74528;SDS011;63009;52.584;5.932;2023-08-20T10:46:15;10.93;;;2.10;;
74528;SDS011;63009;52.584;5.932;2023-08-20T10:48:42;9.73;;;1.83;;
74528;SDS011;63009;52.584;5.932;2023-08-20T10:51:15;9.23;;;1.90;;
74528;SDS011;63009;52.584;5.932;2023-08-20T10:53:43;11.52;;;1.92;;
74528;SDS011;63009;52.584;5.932;2023-08-20T10:56:14;6.25;;;1.80;;
74528;SDS011;63009;52.584;5.932;2023-08-20T10:58:41;8.13;;;1.88;;
74528;SDS011;63009;52.584;5.932;2023-08-20T11:01:21;9.43;;;1.90;;
74528;SDS011;63009;52.584;5.932;2023-08-20T11:03:48;10.38;;;2.33;;
74528;SDS011;63009;52.584;5.932;2023-08-20T11:11:06;9.65;;;2.08;;
74528;SDS011;63009;52.584;5.932;2023-08-20T11:13:32;10.45;;;2.13;;
74528;SDS011;63009;52.584;5.932;2023-08-20T11:15:59;11.80;;;2.20;;
74528;SDS011;63009;52.584;5.932;2023-08-20T11:18:24;11.15;;;2.03;;
74528;SDS011;63009;52.584;5.932;2023-08-20T11:20:50;11.18;;;2.17;;
74528;SDS011;63009;52.584;5.932;2023-08-20T11:23:16;10.65;;;2.00;;
74528;SDS011;63009;52.584;5.932;2023-08-20T11:25:42;8.02;;;1.70;;
74528;SDS011;63009;52.584;5.932;2023-08-20T11:28:08;10.98;;;2.40;;
74528;SDS011;63009;52.584;5.932;2023-08-20T11:30:34;10.20;;;1.95;;
74528;SDS011;63009;52.584;5.932;2023-08-20T11:32:59;8.18;;;1.70;;
74528;SDS011;63009;52.584;5.932;2023-08-20T11:35:25;6.63;;;1.60;;
74528;SDS011;63009;52.584;5.932;2023-08-20T11:37:51;8.10;;;1.85;;
74528;SDS011;63009;52.584;5.932;2023-08-20T11:40:18;6.45;;;1.58;;
74528;SDS011;63009;52.584;5.932;2023-08-20T11:42:46;9.13;;;2.30;;
74528;SDS011;63009;52.584;5.932;2023-08-20T11:45:11;7.40;;;1.85;;
74528;SDS011;63009;52.584;5.932;2023-08-20T11:47:40;8.73;;;1.87;;
74528;SDS011;63009;52.584;5.932;2023-08-20T11:50:06;8.90;;;1.67;;
74528;SDS011;63009;52.584;5.932;2023-08-20T11:52:32;8.32;;;1.63;;
74528;SDS011;63009;52.584;5.932;2023-08-20T11:54:58;10.35;;;1.75;;
74528;SDS011;63009;52.584;5.932;2023-08-20T11:57:25;8.18;;;2.15;;
74528;SDS011;63009;52.584;5.932;2023-08-20T11:59:51;9.63;;;2.08;;
74528;SDS011;63009;52.584;5.932;2023-08-20T12:02:24;9.73;;;1.60;;
74528;SDS011;63009;52.584;5.932;2023-08-20T12:04:50;9.07;;;1.88;;
74528;SDS011;63009;52.584;5.932;2023-08-20T12:07:15;8.18;;;1.50;;
74528;SDS011;63009;52.584;5.932;2023-08-20T12:09:41;9.95;;;2.08;;
74528;SDS011;63009;52.584;5.932;2023-08-20T12:12:07;7.43;;;1.67;;
74528;SDS011;63009;52.584;5.932;2023-08-20T12:14:34;10.40;;;2.05;;
74528;SDS011;63009;52.584;5.932;2023-08-20T12:16:59;7.28;;;1.63;;
74528;SDS011;63009;52.584;5.932;2023-08-20T12:19:25;6.10;;;1.30;;
74528;SDS011;63009;52.584;5.932;2023-08-20T12:21:50;10.57;;;1.70;;
74528;SDS011;63009;52.584;5.932;2023-08-20T12:24:16;5.75;;;1.50;;
74528;SDS011;63009;52.584;5.932;2023-08-20T12:26:44;7.90;;;1.60;;
74528;SDS011;63009;52.584;5.932;2023-08-20T12:29:09;7.03;;;1.45;;
74528;SDS011;63009;52.584;5.932;2023-08-20T12:31:35;13.23;;;2.00;;
74528;SDS011;63009;52.584;5.932;2023-08-20T12:34:00;7.18;;;1.33;;
74528;SDS011;63009;52.584;5.932;2023-08-20T12:36:26;7.80;;;1.67;;
74528;SDS011;63009;52.584;5.932;2023-08-20T12:38:51;6.20;;;1.52;;
74528;SDS011;63009;52.584;5.932;2023-08-20T12:41:18;7.90;;;1.50;;
74528;SDS011;63009;52.584;5.932;2023-08-20T12:43:46;6.90;;;1.30;;
74528;SDS011;63009;52.584;5.932;2023-08-20T12:46:11;7.27;;;1.47;;
74528;SDS011;63009;52.584;5.932;2023-08-20T12:48:38;7.22;;;1.27;;
74528;SDS011;63009;52.584;5.932;2023-08-20T12:51:03;6.40;;;1.57;;
74528;SDS011;63009;52.584;5.932;2023-08-20T12:53:29;5.53;;;1.08;;
74528;SDS011;63009;52.584;5.932;2023-08-20T12:55:54;5.47;;;1.13;;
74528;SDS011;63009;52.584;5.932;2023-08-20T12:58:19;8.43;;;2.00;;
74528;SDS011;63009;52.584;5.932;2023-08-20T13:00:45;6.57;;;1.30;;
74528;SDS011;63009;52.584;5.932;2023-08-20T13:03:11;6.35;;;1.17;;
74528;SDS011;63009;52.584;5.932;2023-08-20T13:05:37;6.90;;;1.63;;
74528;SDS011;63009;52.584;5.932;2023-08-20T13:08:02;6.85;;;1.50;;
74528;SDS011;63009;52.584;5.932;2023-08-20T13:10:28;7.65;;;1.40;;
74528;SDS011;63009;52.584;5.932;2023-08-20T13:12:54;7.45;;;1.25;;
74528;SDS011;63009;52.584;5.932;2023-08-20T13:15:24;6.28;;;1.23;;
74528;SDS011;63009;52.584;5.932;2023-08-20T13:17:50;7.70;;;1.40;;
74528;SDS011;63009;52.584;5.932;2023-08-20T13:20:15;7.28;;;1.60;;
74528;SDS011;63009;52.584;5.932;2023-08-20T13:22:46;7.18;;;1.50;;
74528;SDS011;63009;52.584;5.932;2023-08-20T13:25:12;7.85;;;1.50;;
74528;SDS011;63009;52.584;5.932;2023-08-20T13:27:38;6.97;;;1.50;;
74528;SDS011;63009;52.584;5.932;2023-08-20T13:30:03;5.10;;;1.30;;
74528;SDS011;63009;52.584;5.932;2023-08-20T13:32:29;7.60;;;1.38;;
74528;SDS011;63009;52.584;5.932;2023-08-20T13:34:54;9.47;;;1.40;;
74528;SDS011;63009;52.584;5.932;2023-08-20T13:37:20;5.77;;;1.20;;
74528;SDS011;63009;52.584;5.932;2023-08-20T13:39:45;6.70;;;1.50;;
74528;SDS011;63009;52.584;5.932;2023-08-20T13:42:10;6.07;;;1.37;;
74528;SDS011;63009;52.584;5.932;2023-08-20T13:44:35;8.50;;;2.20;;
74528;SDS011;63009;52.584;5.932;2023-08-20T13:47:01;4.70;;;1.37;;
74528;SDS011;63009;52.584;5.932;2023-08-20T13:49:26;5.63;;;1.10;;
74528;SDS011;63009;52.584;5.932;2023-08-20T13:51:51;7.68;;;1.42;;
74528;SDS011;63009;52.584;5.932;2023-08-20T13:54:17;5.97;;;1.10;;
74528;SDS011;63009;52.584;5.932;2023-08-20T13:56:42;8.27;;;1.30;;
74528;SDS011;63009;52.584;5.932;2023-08-20T13:59:10;7.20;;;1.77;;
74528;SDS011;63009;52.584;5.932;2023-08-20T14:01:36;6.18;;;1.40;;
74528;SDS011;63009;52.584;5.932;2023-08-20T14:04:01;9.70;;;1.43;;
74528;SDS011;63009;52.584;5.932;2023-08-20T14:06:27;9.63;;;1.75;;
74528;SDS011;63009;52.584;5.932;2023-08-20T14:08:52;6.10;;;1.53;;
74528;SDS011;63009;52.584;5.932;2023-08-20T14:11:17;7.97;;;1.60;;
74528;SDS011;63009;52.584;5.932;2023-08-20T14:13:42;7.63;;;1.30;;
74528;SDS011;63009;52.584;5.932;2023-08-20T14:16:08;9.07;;;1.60;;
74528;SDS011;63009;52.584;5.932;2023-08-20T14:18:33;7.70;;;1.57;;
74528;SDS011;63009;52.584;5.932;2023-08-20T14:20:58;4.70;;;1.45;;
74528;SDS011;63009;52.584;5.932;2023-08-20T14:23:24;5.73;;;1.20;;
74528;SDS011;63009;52.584;5.932;2023-08-20T14:25:49;6.30;;;1.30;;
74528;SDS011;63009;52.584;5.932;2023-08-20T14:28:14;6.85;;;1.50;;
74528;SDS011;63009;52.584;5.932;2023-08-20T14:30:40;6.47;;;1.43;;
74528;SDS011;63009;52.584;5.932;2023-08-20T14:33:05;7.50;;;1.50;;
74528;SDS011;63009;52.584;5.932;2023-08-20T14:35:31;7.63;;;1.25;;
74528;SDS011;63009;52.584;5.932;2023-08-20T14:37:57;5.82;;;1.25;;
74528;SDS011;63009;52.584;5.932;2023-08-20T14:40:22;5.53;;;1.15;;
74528;SDS011;63009;52.584;5.932;2023-08-20T14:42:48;6.35;;;1.70;;
74528;SDS011;63009;52.584;5.932;2023-08-20T14:45:14;5.50;;;1.60;;
74528;SDS011;63009;52.584;5.932;2023-08-20T14:47:39;6.10;;;1.77;;
74528;SDS011;63009;52.584;5.932;2023-08-20T14:50:05;7.00;;;1.40;;